»·PEaware :: N904CP KSNA-KSBA

N904CP :: KSNA-KSBA

FLIGHT INFORMATION

Flight Status: Arrived
Operator: Privately registered:
United States
More flights under this callsign
Pilot: Juan D. (11620)
Aircraft: CESSNA 172 SKYHAWK
(C172)
More flights by this aircraft type
Origin: KSNA John Wayne-Orange Co
United States
Destination: KSBA Santa Barbara Mun
United States
More flights between these airports :: More routes between these airports
Route: +OLLIE ADAMM FIM
File this flight plan on PilotEdge
Remarks:
Altitude:
(Current/Filed)
4,500ft
Speed:
(Current/Filed)
115kts
Departed: 10-Aug-17 10:10 AM
Arrived: 10-Aug-17 11:24 AM
Distance/Time
Traveled:
108nm/1:14
Distance/Time
To Go:
Arrived

Flight Plot

Page will automatically refresh every two minutes.

Flight plan parsing failed; only flown route is shown


Map Options




Map Legend


Flown Route
Filed Route
Departure Airport
Arrival Airport
Navaid (VOR, NDB)
Fix

Horizontal Profiles

Position Reports

Time Latitude Longitude Heading Altitude Ground
Speed
10-Aug-17 09:55 33.672235 -117.866704 210 60ft 0kts
10-Aug-17 09:56 33.672235 -117.866704 210 60ft 0kts
10-Aug-17 09:57 33.672235 -117.866704 210 60ft 0kts
10-Aug-17 09:58 33.672235 -117.866704 210 60ft 0kts
10-Aug-17 09:59 33.672235 -117.866704 210 60ft 0kts
10-Aug-17 10:00 33.672235 -117.866704 210 60ft 0kts
10-Aug-17 10:01 33.672235 -117.866704 210 60ft 0kts
10-Aug-17 10:02 33.672235 -117.866704 210 60ft 0kts
10-Aug-17 10:03 33.672235 -117.866704 210 60ft 0kts
10-Aug-17 10:04 33.672235 -117.866704 210 60ft 0kts
10-Aug-17 10:05 33.672235 -117.866704 210 60ft 0kts
10-Aug-17 10:06 33.672128 -117.866780 226 60ft 3kts
10-Aug-17 10:07 33.674412 -117.866892 27 60ft 12kts
10-Aug-17 10:08 33.677923 -117.864669 27 60ft 15kts
10-Aug-17 10:09 33.680002 -117.863649 292 60ft 0kts
10-Aug-17 10:10 33.680002 -117.863649 292 60ft 0kts
10-Aug-17 10:11 33.680002 -117.863649 292 60ft 0kts
10-Aug-17 10:12 33.680010 -117.863672 292 60ft 1kts
10-Aug-17 10:13 33.669565 -117.871955 227 428ft 76kts
10-Aug-17 10:14 33.662224 -117.901036 252 1018ft 101kts
10-Aug-17 10:15 33.653918 -117.934552 251 1541ft 107kts
10-Aug-17 10:16 33.645308 -117.968900 251 2043ft 108kts
10-Aug-17 10:17 33.636609 -118.003194 250 2540ft 107kts
10-Aug-17 10:18 33.627884 -118.036502 250 3028ft 106kts
10-Aug-17 10:19 33.620712 -118.066791 272 3463ft 107kts
10-Aug-17 10:20 33.641579 -118.069837 43 3890ft 112kts
10-Aug-17 10:21 33.662793 -118.051065 33 4314ft 111kts
10-Aug-17 10:22 33.684696 -118.033395 34 4501ft 125kts
10-Aug-17 10:23 33.707918 -118.014643 34 4493ft 132kts
10-Aug-17 10:24 33.730817 -117.996147 34 4491ft 133kts
10-Aug-17 10:25 33.753437 -117.977876 34 4490ft 133kts
10-Aug-17 10:26 33.777384 -117.958389 34 4489ft 133kts
10-Aug-17 10:27 33.806082 -117.934327 34 4488ft 133kts
10-Aug-17 10:28 33.835959 -117.908564 34 4486ft 132kts
10-Aug-17 10:29 33.865379 -117.882735 34 4484ft 130kts
10-Aug-17 10:30 33.894372 -117.857106 34 4482ft 128kts
10-Aug-17 10:31 33.922984 -117.831918 34 4481ft 127kts
10-Aug-17 10:32 33.956606 -117.825225 2 4481ft 125kts
10-Aug-17 10:33 33.988330 -117.834140 319 4484ft 123kts
10-Aug-17 10:34 34.015222 -117.859630 321 4487ft 123kts
10-Aug-17 10:35 34.036952 -117.891382 300 4491ft 123kts
10-Aug-17 10:36 34.052233 -117.928567 294 4494ft 125kts
10-Aug-17 10:37 34.065674 -117.967401 292 4496ft 125kts
10-Aug-17 10:38 34.078518 -118.006440 291 4498ft 125kts
10-Aug-17 10:39 34.091212 -118.045580 291 4499ft 125kts
10-Aug-17 10:40 34.103667 -118.084183 291 4499ft 125kts
10-Aug-17 10:41 34.116283 -118.123392 291 4498ft 125kts
10-Aug-17 10:42 34.128827 -118.162425 291 4496ft 125kts
10-Aug-17 10:43 34.141457 -118.201791 291 4495ft 125kts
10-Aug-17 10:44 34.154052 -118.241086 291 4493ft 125kts
10-Aug-17 10:45 34.166626 -118.280378 291 4492ft 125kts
10-Aug-17 10:46 34.179235 -118.319844 291 4490ft 125kts
10-Aug-17 10:47 34.191804 -118.359447 292 4490ft 128kts
10-Aug-17 10:48 34.204817 -118.400077 292 4490ft 131kts
10-Aug-17 10:49 34.217929 -118.441212 292 4490ft 131kts
10-Aug-17 10:50 34.231019 -118.482391 292 4490ft 131kts
10-Aug-17 10:51 34.243827 -118.522598 291 4489ft 126kts
10-Aug-17 10:52 34.256262 -118.561922 291 4493ft 125kts
10-Aug-17 10:53 34.268742 -118.601359 291 4494ft 125kts
10-Aug-17 10:54 34.281241 -118.640912 291 4493ft 125kts
10-Aug-17 10:55 34.293209 -118.678850 291 4492ft 125kts
10-Aug-17 10:56 34.305667 -118.718373 291 4490ft 125kts
10-Aug-17 10:57 34.317654 -118.756457 291 4486ft 125kts
10-Aug-17 10:58 34.329434 -118.793906 291 4482ft 125kts
10-Aug-17 10:59 34.341275 -118.831616 291 4481ft 126kts
10-Aug-17 11:00 34.350856 -118.862148 291 4481ft 126kts
10-Aug-17 11:01 34.357447 -118.893686 274 4479ft 127kts
10-Aug-17 11:02 34.360540 -118.931434 276 4481ft 127kts
10-Aug-17 11:03 34.363448 -118.968917 275 4481ft 127kts
10-Aug-17 11:04 34.366078 -119.003535 275 4477ft 128kts
10-Aug-17 11:05 34.368519 -119.035902 275 4462ft 128kts
10-Aug-17 11:06 34.370988 -119.069008 275 4463ft 128kts
10-Aug-17 11:07 34.373723 -119.105707 275 4465ft 127kts
10-Aug-17 11:08 34.376581 -119.144137 275 4466ft 126kts
10-Aug-17 11:09 34.379746 -119.185461 273 4589ft 115kts
10-Aug-17 11:10 34.381912 -119.215180 272 5410ft 84kts
10-Aug-17 11:11 34.383475 -119.236934 271 6093ft 74kts
10-Aug-17 11:12 34.385017 -119.259588 272 6501ft 95kts
10-Aug-17 11:13 34.387224 -119.290091 273 6494ft 120kts
10-Aug-17 11:14 34.389818 -119.325179 272 6484ft 124kts
10-Aug-17 11:15 34.392485 -119.361840 272 6483ft 125kts
10-Aug-17 11:16 34.395339 -119.401486 272 6162ft 137kts
10-Aug-17 11:17 34.398662 -119.447601 272 5674ft 140kts
10-Aug-17 11:18 34.402092 -119.495602 272 4989ft 146kts
10-Aug-17 11:19 34.405607 -119.545083 272 4193ft 148kts
10-Aug-17 11:20 34.409108 -119.594624 272 3398ft 148kts
10-Aug-17 11:21 34.412563 -119.643678 272 2860ft 136kts
10-Aug-17 11:22 34.423620 -119.687629 292 2474ft 144kts
10-Aug-17 11:23 34.429935 -119.730291 265 2407ft 117kts
10-Aug-17 11:24 34.429672 -119.767291 263 1700ft 97kts
10-Aug-17 11:25 34.428934 -119.797419 259 884ft 87kts
10-Aug-17 11:26 34.428143 -119.824530 261 222ft 81kts
10-Aug-17 11:27 34.428691 -119.838960 346 17ft 0kts
10-Aug-17 11:28 34.431278 -119.838022 73 17ft 18kts

Navigation Log

Ident Type
Flight plan parsing failed, navigation log unavailable